createdAt,value
2022-10-30T00:03:26.167Z,75.69
2022-10-30T00:08:46.583Z,75.94
2022-10-30T00:14:08.599Z,76.10
2022-10-30T00:19:11.403Z,76.09
2022-10-30T00:24:14.709Z,75.98
2022-10-30T00:29:17.493Z,75.95
2022-10-30T00:34:20.324Z,76.01
2022-10-30T00:39:23.088Z,76.25
2022-10-30T00:44:44.565Z,76.24
2022-10-30T00:50:03.350Z,76.15
2022-10-30T00:55:16.264Z,76.35
2022-10-30T01:00:24.592Z,76.38
2022-10-30T01:05:49.441Z,76.48
2022-10-30T01:10:52.354Z,76.64
2022-10-30T01:16:30.890Z,76.86
2022-10-30T01:22:08.065Z,76.76
2022-10-30T01:27:37.561Z,76.55
2022-10-30T01:33:04.255Z,76.49
2022-10-30T01:38:47.589Z,76.77
2022-10-30T01:43:55.316Z,77.08
2022-10-30T01:49:28.843Z,77.23
2022-10-30T01:54:46.777Z,77.11
2022-10-30T02:00:29.102Z,76.94
2022-10-30T02:05:51.822Z,76.80
2022-10-30T02:10:55.501Z,77.10
2022-10-30T02:15:59.706Z,77.27
2022-10-30T02:21:20.827Z,77.31
2022-10-30T02:26:23.659Z,77.31
2022-10-30T02:31:26.497Z,77.37
2022-10-30T02:36:29.288Z,77.09
2022-10-30T02:41:32.104Z,77.13
2022-10-30T02:46:35.154Z,77.30
2022-10-30T02:51:55.457Z,77.58
2022-10-30T02:56:58.267Z,77.55
2022-10-30T03:02:01.262Z,77.57
2022-10-30T03:07:04.263Z,77.20
2022-10-30T03:12:24.753Z,77.11
2022-10-30T03:17:27.591Z,77.28
2022-10-30T03:22:30.482Z,77.16
2022-10-30T03:27:50.845Z,77.44
2022-10-30T03:32:53.644Z,77.49
2022-10-30T03:38:14.520Z,77.37
2022-10-30T03:43:18.497Z,77.43
2022-10-30T03:48:24.396Z,77.42
2022-10-30T03:53:28.839Z,77.39
2022-10-30T03:58:31.723Z,77.57
2022-10-30T04:03:34.899Z,77.51
2022-10-30T04:08:55.850Z,77.63
2022-10-30T04:13:58.508Z,77.81
2022-10-30T04:19:01.370Z,78.03
2022-10-30T04:24:04.696Z,78.58
2022-10-30T04:29:25.251Z,78.46
2022-10-30T04:34:45.980Z,78.44
2022-10-30T04:39:49.503Z,78.20
2022-10-30T04:44:52.351Z,78.12
2022-10-30T04:49:55.211Z,78.19
2022-10-30T04:54:58.070Z,78.21
2022-10-30T05:00:00.875Z,78.20
2022-10-30T05:05:04.625Z,78.24
2022-10-30T05:10:07.915Z,78.41
2022-10-30T05:15:13.235Z,78.46
2022-10-30T05:20:18.804Z,78.53
2022-10-30T05:25:22.729Z,78.21
2022-10-30T05:30:28.424Z,78.12
2022-10-30T05:35:33.314Z,77.93
2022-10-30T05:40:36.199Z,77.77
2022-10-30T05:45:39.082Z,77.80
2022-10-30T05:50:41.937Z,77.88
2022-10-30T05:55:44.708Z,78.18
2022-10-30T06:01:07.981Z,77.81
2022-10-30T06:06:11.816Z,77.72
2022-10-30T06:11:14.605Z,77.88
2022-10-30T06:16:17.555Z,77.93
2022-10-30T06:21:20.421Z,78.20
2022-10-30T06:26:23.280Z,78.36
2022-10-30T06:31:26.089Z,78.11
2022-10-30T06:36:28.979Z,77.93
2022-10-30T06:41:31.795Z,77.72
2022-10-30T06:46:34.607Z,77.76
2022-10-30T06:51:37.517Z,78.15
2022-10-30T06:56:40.889Z,78.16
2022-10-30T07:01:43.793Z,78.57
2022-10-30T07:06:46.939Z,78.82
2022-10-30T07:11:54.368Z,78.73
2022-10-30T07:16:59.534Z,78.87
2022-10-30T07:22:02.704Z,78.95
2022-10-30T07:27:05.493Z,78.98
2022-10-30T07:32:08.348Z,78.89
2022-10-30T07:37:11.101Z,78.46
2022-10-30T07:42:33.060Z,78.28
2022-10-30T07:47:54.075Z,78.68
2022-10-30T07:53:15.012Z,78.78
2022-10-30T07:58:17.820Z,78.70
2022-10-30T08:03:38.660Z,78.62
2022-10-30T08:08:43.356Z,78.42
2022-10-30T08:13:46.984Z,78.37
2022-10-30T08:19:07.437Z,78.46
2022-10-30T08:24:10.288Z,78.65
2022-10-30T08:29:13.143Z,78.44
2022-10-30T08:34:15.954Z,78.16
2022-10-30T08:39:19.329Z,77.82
2022-10-30T08:44:21.952Z,78.15
2022-10-30T08:49:24.714Z,78.26
2022-10-30T08:54:27.530Z,78.23
2022-10-30T08:59:48.204Z,77.97
2022-10-30T09:04:50.967Z,77.76
2022-10-30T09:10:11.859Z,77.98
2022-10-30T09:15:32.159Z,78.07
2022-10-30T09:20:52.646Z,78.54
2022-10-30T09:25:58.278Z,78.52
2022-10-30T09:31:02.655Z,78.51
2022-10-30T09:36:22.967Z,78.82
2022-10-30T09:41:35.742Z,78.93
2022-10-30T09:47:08.807Z,78.72
2022-10-30T09:52:54.462Z,78.31
2022-10-30T09:58:45.169Z,77.97
2022-10-30T10:04:21.075Z,77.74
2022-10-30T10:09:30.152Z,77.79
2022-10-30T10:14:52.621Z,77.54
2022-10-30T10:20:00.390Z,77.01
2022-10-30T10:25:12.760Z,76.78
2022-10-30T10:30:58.440Z,76.04
2022-10-30T10:36:28.731Z,75.48
2022-10-30T10:41:56.280Z,75.43
2022-10-30T10:48:06.297Z,74.77
2022-10-30T10:53:22.818Z,74.83
2022-10-30T10:58:48.812Z,74.48
2022-10-30T11:04:10.560Z,74.31
2022-10-30T11:09:20.252Z,73.51
2022-10-30T11:14:28.045Z,73.37
2022-10-30T11:19:32.079Z,73.42
2022-10-30T11:24:52.519Z,72.91
2022-10-30T11:30:05.930Z,73.12
2022-10-30T11:35:16.200Z,73.27
2022-10-30T11:40:37.049Z,72.49
2022-10-30T11:45:57.578Z,71.36
2022-10-30T11:51:36.382Z,72.14
2022-10-30T11:56:48.392Z,70.96
2022-10-30T12:02:04.353Z,70.78
2022-10-30T12:07:23.424Z,71.15
2022-10-30T12:12:43.832Z,70.42
2022-10-30T12:17:54.658Z,69.38
2022-10-30T12:22:58.520Z,69.57
2022-10-30T12:28:06.430Z,68.91
2022-10-30T12:33:23.179Z,68.65
2022-10-30T12:38:35.526Z,68.72
2022-10-30T12:43:42.491Z,68.63
2022-10-30T12:48:58.106Z,68.72
2022-10-30T12:54:51.456Z,69.15
2022-10-30T13:00:03.680Z,68.97
2022-10-30T13:05:41.123Z,68.91
2022-10-30T13:10:51.079Z,68.99
2022-10-30T13:15:58.050Z,69.28
2022-10-30T13:21:31.493Z,69.24
2022-10-30T13:27:14.623Z,69.22
2022-10-30T13:32:56.945Z,69.23
2022-10-30T13:38:18.400Z,69.83
2022-10-30T13:43:43.155Z,70.03
2022-10-30T13:49:23.387Z,70.26
2022-10-30T13:54:41.023Z,70.73
2022-10-30T14:00:18.330Z,70.83
2022-10-30T14:05:36.469Z,70.87
2022-10-30T14:11:00.700Z,71.18
2022-10-30T14:16:07.903Z,70.91
2022-10-30T14:21:30.432Z,71.14
2022-10-30T14:26:33.230Z,71.33
2022-10-30T14:31:37.112Z,71.58
2022-10-30T14:36:39.939Z,71.95
2022-10-30T14:42:14.073Z,71.84
2022-10-30T14:48:22.232Z,72.13
2022-10-30T14:53:59.107Z,72.70
2022-10-30T14:59:23.816Z,72.97
2022-10-30T15:04:57.365Z,73.13
2022-10-30T15:10:12.944Z,73.15
2022-10-30T15:15:21.478Z,73.30
2022-10-30T15:20:28.478Z,73.36
2022-10-30T15:25:37.449Z,73.61
2022-10-30T15:31:20.463Z,73.39
2022-10-30T15:36:30.561Z,73.49
2022-10-30T15:41:44.036Z,73.64
2022-10-30T15:46:53.866Z,73.74
2022-10-30T15:52:26.585Z,73.65
2022-10-30T15:58:01.481Z,74.02
2022-10-30T16:03:18.241Z,74.49
2022-10-30T16:08:24.646Z,74.42
2022-10-30T16:13:45.305Z,74.37
2022-10-30T16:18:48.527Z,74.60
2022-10-30T16:23:55.363Z,74.24
2022-10-30T16:29:03.005Z,74.29
2022-10-30T16:34:13.518Z,74.59
2022-10-30T16:39:36.423Z,74.59
2022-10-30T16:44:39.250Z,74.35
2022-10-30T16:49:51.460Z,74.66
2022-10-30T16:55:06.316Z,75.01
2022-10-30T17:00:31.580Z,74.86
2022-10-30T17:05:38.265Z,74.80
2022-10-30T17:10:48.111Z,74.95
2022-10-30T17:16:29.447Z,75.07
2022-10-30T17:21:41.642Z,75.15
2022-10-30T17:26:57.944Z,75.09
2022-10-30T17:32:16.204Z,74.77
2022-10-30T17:37:18.984Z,74.78
2022-10-30T17:42:21.808Z,74.94
2022-10-30T17:47:42.360Z,74.86
2022-10-30T17:52:45.166Z,75.01
2022-10-30T17:57:47.967Z,74.57
2022-10-30T18:02:50.792Z,74.61
2022-10-30T18:07:53.579Z,74.61
2022-10-30T18:12:59.157Z,74.49
2022-10-30T18:18:03.788Z,74.35
2022-10-30T18:23:50.392Z,74.46
2022-10-30T18:28:42.954Z,74.22
2022-10-30T18:33:46.965Z,74.17
2022-10-30T18:38:50.715Z,73.75
2022-10-30T18:44:18.758Z,73.49
2022-10-30T18:49:24.506Z,73.65
2022-10-30T18:54:27.266Z,73.43
2022-10-30T18:59:47.544Z,73.55
2022-10-30T19:04:50.337Z,73.50
2022-10-30T19:09:53.631Z,73.17
2022-10-30T19:15:26.358Z,73.08
2022-10-30T19:31:17.377Z,72.97
2022-10-30T19:36:34.041Z,72.97
2022-10-30T19:41:39.016Z,73.59
2022-10-30T19:46:41.889Z,73.54
2022-10-30T19:51:44.686Z,73.46
2022-10-30T19:57:08.526Z,72.85
2022-10-30T20:02:11.891Z,73.28
2022-10-30T20:07:14.693Z,73.16
2022-10-30T20:12:17.452Z,73.00
2022-10-30T20:17:20.224Z,73.09
2022-10-30T20:22:28.066Z,72.95
2022-10-30T20:27:31.328Z,72.76
2022-10-30T20:32:34.320Z,72.76
2022-10-30T20:37:37.266Z,72.62
2022-10-30T20:42:40.608Z,72.84
2022-10-30T20:47:43.951Z,72.74
2022-10-30T20:52:46.807Z,72.77
2022-10-30T20:57:49.576Z,72.73
2022-10-30T21:02:52.446Z,73.26
2022-10-30T21:07:55.313Z,73.02
2022-10-30T21:12:59.972Z,72.74
2022-10-30T21:18:05.188Z,72.90
2022-10-30T21:23:09.090Z,72.67
2022-10-30T21:28:11.871Z,72.74
2022-10-30T21:33:14.649Z,72.47
2022-10-30T21:38:17.424Z,72.10
2022-10-30T21:43:20.214Z,72.12
2022-10-30T21:48:26.228Z,72.11
2022-10-30T21:53:30.967Z,71.96
2022-10-30T21:58:52.019Z,72.06
2022-10-30T22:03:55.644Z,72.14
2022-10-30T22:09:18.259Z,71.23
2022-10-30T22:14:21.111Z,71.60
2022-10-30T22:19:41.827Z,72.14
2022-10-30T22:24:44.608Z,72.40
2022-10-30T22:29:47.727Z,71.79
2022-10-30T22:34:50.507Z,71.93
2022-10-30T22:39:53.305Z,72.00
2022-10-30T22:44:56.059Z,72.52
2022-10-30T22:49:58.860Z,72.91
2022-10-30T22:55:19.346Z,72.89
2022-10-30T23:00:27.724Z,73.31
2022-10-30T23:05:30.582Z,73.03
2022-10-30T23:10:33.360Z,72.78
2022-10-30T23:15:38.949Z,72.58
2022-10-30T23:20:47.536Z,72.46
2022-10-30T23:25:50.298Z,72.20
2022-10-30T23:30:53.116Z,72.12
2022-10-30T23:36:04.065Z,71.91
2022-10-30T23:41:06.875Z,71.42
2022-10-30T23:46:09.669Z,71.98
2022-10-30T23:51:12.495Z,72.41
2022-10-30T23:56:15.901Z,72.56
